Terminal Aerodrome Forecast
Issued by NWS Sterling, VA

Current Version | Previous Version | Graphics & Text | Print | Product List | Glossary On
Versions: 1 2 3 4 5 6 7 8 9 10 11 12 13 14 15 16 17 18 19 20 21 22 23 24 25 26
843
FTUS41 KLWX 012327
TAFDCA
TAF
KDCA 012327Z 0200/0224 07005KT 3SM -DZ BR OVC005
     FM020300 09005KT 3SM -SHRADZ BR OVC003
     FM020600 11005KT 3SM -DZ BR OVC003
     FM021400 19005KT P6SM BKN008 OVC015
     FM021600 21006KT P6SM BKN025
     FM021800 22009KT P6SM BKN050 BKN100
     FM022200 24008KT 5SM -SHRA BKN050 BKN100=

USA.gov is the U.S. government's official web portal to all federal, state and local government web resources and services.